Accueil
METAR-TAF:

METAR-TAF

Aéroports :

Aéroport Federico-Fellini

Rimini, Italie

latitude: 44-02N, longitude: 012-37E, altitude: 12 m

Observation

Le bulletin a été fait il y a 34 minutes, à 20:20 UTC
Vent 7 kt de est/nord-est
Température 6°C
Humidité 56%
Pression 1018 hPa
Visibilité 10 km ou plus

METAR: LIPR 152020Z AUTO 06007KT 9999 FEW042/// 06/M02 Q1018

Heure: 21:54 (20:54 UTC)

Prévision

Le bulletin a été fait il y a 3 heures et 54 minutes, à 17:00 UTC
Prévision valable du 15 à 18 UTC au 16 à 03 UTC
Vent 10 kt de nord-est
Visibilité 10 km ou plus
Nuages épars à une hauteur de 4000 ft

TAF: LIPR 151700Z 1518/1603 04010KT 9999 SCT040

Observations et prévisions météorologiques de plus de 4000 aéroports (messages METAR et TAF).

Les stations disponibles sont représentées par des disques jaunes et rouges sur la carte.

Passer la souris dessus pour voir le nom de la station.

Cliquer dessus pour voir les observations et prévisions météorologiques.

Pour changer de carte: cliquez sur les boutons verts avec une croix noire pour zoomer, sur le bouton vert avec un tiret pour effectuer un zoom arrière, ou sur les flèches vertes pour les cartes adjacentes.


METAR-TAF: